Airfield :
LOGIN :

Register | Disclaimer

   EN    FR    IT 

 










Legend :    VFR   Marginal VFR   IFR   Intensive IFR   Very Intensive IFR
Visi :
Ceiling :
>= 8 km
>= 3000ft
5 to 8 km
1000 to 3000 ft
1500m to 5 km
500 to 1000 ft
800 to 1500m
200 to 500 ft
< 800m
< 200 ft
Symbols :   Thunderstorms  Fog  Heavy snow  Heavy precipitations  Wind > 20 kt
SIGMETs :     Misc.  Thunderstorms  Icing  Turbulence  Mountain Waves  Volcanic Ashes







- Airport Elevation : 1276 ft
- IATA code : STR


EDDS - Stuttgart

CURRENT METAR :
  • 242150Z 32006KT 9999 BKN046 17/09 Q1020

EXPIRED METARs :
  • 242120Z 32007KT 9999 BKN043 17/09 Q1020
  • 242050Z 32005KT 9999 FEW043 BKN050 17/09 Q1020
  • 242020Z 33005KT 9999 FEW047 BKN060 17/09 Q1020
  • 241950Z 33004KT 9999 FEW048 BKN060 BKN280 17/08 Q1020 NOSIG
  • 241920Z 35005KT 250V040 9999 FEW046 SCT066 BKN280 18/09 Q1020 NOSIG

TAF TAF EDDS
Valid from the 24 at 18:00 until the 25 at 18:00 UTC


241700Z 2418/2518 36005KT 9999 SCT045
TEMPO 2422/2507 VRB03KT
No reported NOTAMs for that airfield.



MET'MAP, your aeronautical weather chart ! - Copyright ORBIFLY December 2007 - Disclaimer

ORBIFLY MET'MAP TEAM :

Programming & Development : Alexandra Zaïnal
Concept & Development : Baudouin d'Aumeries
Co-Development & Prog : Marc-Olivier Méhu
Technical & hardware support : Manuel Goepfert

Contact : metmap@orbifly.com




SOURCES & CREDITS :

   NOAA